Iver Bright — ZDKU4 — position and weather

sailwx.info

Track history (hours):
 
Tides and Currents Weather Stations Pressure Air Temp Water Temp Dewpoint Dewpoint Depression Visibility Wind Speed Wind Dir Waves Ship Positions

Iver Bright

Last reported at 2015-May-27 10:22 UTC. Time now 2015-May-27 14:00 UTC.
Position N 32°11' E 030°45'.

Length 111 m; draft 7.3 m.

Type: Tanker. MMSI: 236111811.

Date/timePositionNaut miles runAvg speedWind from/ knotsBaromVisibWave heightAir tempDewpointWater temp
2015-May-27 10:22N 32°11' E 030°45'1011.8
2015-May-27 09:33N 32°14' E 030°35'1211.6
2015-May-27 08:31N 32°19' E 030°21'2211.1
2015-May-27 06:33N 32°27' E 029°58'1111.0
2015-May-27 05:33N 32°31' E 029°46'1111.0
2015-May-27 04:33N 32°35' E 029°33'2311.3
2015-May-27 02:29N 32°43' E 029°07'2211.4
2015-May-27 00:33N 32°51' E 028°43'1211.5
2015-May-26 23:32N 32°56' E 028°30'3911.9
2015-May-26 20:17N 33°10' E 027°47'911.9
2015-May-26 19:33N 33°13' E 027°37'1211.7
2015-May-26 18:33N 33°18' E 027°24'3311.0
2015-May-26 15:33N 33°30' E 026°48'1111.1
2015-May-26 14:33N 33°34' E 026°35'1211.4
2015-May-26 13:32N 33°38' E 026°22'1211.9
2015-May-26 12:33N 33°42' E 026°09'5011.6
2015-May-26 08:16N 34°00' E 025°13'  
2015-May-20 04:28N 32°40' E 029°16'2612.3
2015-May-20 02:21N 32°30' E 029°44'1012.6
2015-May-20 01:32N 32°26' E 029°55'12512.5
2015-May-19 15:30N 31°35' E 032°10'1111.5
2015-May-19 14:33N 31°29' E 032°21'1010.4
2015-May-19 13:33N 31°19' E 032°22'9 9.0
2015-May-19 12:33N 31°10' E 032°20'46 8.5
2015-May-19 07:10N 30°24' E 032°22'17 9.0
2015-May-19 05:16N 30°11' E 032°34'  
Track history (hours):
 
Tides and Currents Weather Stations Pressure Air Temp Water Temp Dewpoint Dewpoint Depression Visibility Wind Speed Wind Dir Waves Ship Positions

Iver Bright

Last reported at 2015-May-27 10:22 UTC. Time now 2015-May-27 14:00 UTC.
Position N 32°11' E 030°45'.

Length 111 m; draft 7.3 m.

Type: Tanker. MMSI: 236111811.

Date/timePositionNaut miles runAvg speedWind from/ knotsBaromVisibWave heightAir tempDewpointWater temp
2015-May-27 10:22N 32°11' E 030°45'1011.8
2015-May-27 09:33N 32°14' E 030°35'1211.6
2015-May-27 08:31N 32°19' E 030°21'2211.1
2015-May-27 06:33N 32°27' E 029°58'1111.0
2015-May-27 05:33N 32°31' E 029°46'1111.0
2015-May-27 04:33N 32°35' E 029°33'2311.3
2015-May-27 02:29N 32°43' E 029°07'2211.4
2015-May-27 00:33N 32°51' E 028°43'1211.5
2015-May-26 23:32N 32°56' E 028°30'3911.9
2015-May-26 20:17N 33°10' E 027°47'911.9
2015-May-26 19:33N 33°13' E 027°37'1211.7
2015-May-26 18:33N 33°18' E 027°24'3311.0
2015-May-26 15:33N 33°30' E 026°48'1111.1
2015-May-26 14:33N 33°34' E 026°35'1211.4
2015-May-26 13:32N 33°38' E 026°22'1211.9
2015-May-26 12:33N 33°42' E 026°09'5011.6
2015-May-26 08:16N 34°00' E 025°13'  
2015-May-20 04:28N 32°40' E 029°16'2612.3
2015-May-20 02:21N 32°30' E 029°44'1012.6
2015-May-20 01:32N 32°26' E 029°55'12512.5
2015-May-19 15:30N 31°35' E 032°10'1111.5
2015-May-19 14:33N 31°29' E 032°21'1010.4
2015-May-19 13:33N 31°19' E 032°22'9 9.0
2015-May-19 12:33N 31°10' E 032°20'46 8.5
2015-May-19 07:10N 30°24' E 032°22'17 9.0
2015-May-19 05:16N 30°11' E 032°34'  

Dump ship's entire track history